Time;durP1;ratioP1;P1;durP2;ratioP2;P2;SDS_P1;SDS_P2;PMS_P1;PMS_P2;Temp;Humidity;BMP_temperature;BMP_pressure;BME280_temperature;BME280_humidity;BME280_pressure;Samples;Min_cycle;Max_cycle;Signal;HPM_P1;HPM_P2
2020/12/14 00:02:25;;;;;;;;;;;;;;;9.50;100.00;97995.59;5094869;28;20343;-79
2020/12/14 00:04:53;;;;;;;;;;;;;;;9.55;100.00;98000.63;5076707;28;19931;-79
2020/12/14 00:07:20;;;;;;;;;;;;;;;9.49;100.00;97996.81;5094726;28;20020;-79
2020/12/14 00:09:47;;;;;;;;;;;;;;;9.48;100.00;97989.69;5076733;28;19924;-79
2020/12/14 00:12:14;;;;;;;;;;;;;;;9.46;100.00;97978.19;5094888;28;19924;-79
2020/12/14 00:14:40;;;;;;;;;;;;;;;9.39;100.00;97961.69;5076551;28;20023;-79
2020/12/14 00:17:06;;;;;;;;;;;;;;;9.41;100.00;97978.72;5076612;28;20371;-79
2020/12/14 00:19:33;;;;;;;;;;;;;;;9.51;100.00;97963.72;5076202;28;19935;-79
2020/12/14 00:21:59;;;;;;;;;;;;;;;9.39;100.00;97981.19;5094755;28;19924;-79
2020/12/14 00:24:26;;;;;;;;;;;;;;;9.47;100.00;97965.81;5094480;28;19924;-79
2020/12/14 00:26:52;;;;;;;;;;;;;;;9.43;100.00;97963.13;5076261;28;19931;-79
2020/12/14 00:29:19;;;;;;;;;;;;;;;9.41;100.00;97946.06;5076213;28;20355;-79
2020/12/14 00:31:49;;;;;;;;;;;;;;;9.43;100.00;97931.69;5059611;28;20371;-80
2020/12/14 00:34:17;;;;;;;;;;;;;;;9.39;100.00;97928.97;5076306;28;20299;-78
2020/12/14 00:36:54;;;;;;;;;;;;;;;9.39;100.00;97937.34;5094217;28;19989;-78
2020/12/14 00:39:21;;;;;;;;;;;;;;;9.37;100.00;97964.13;5094188;28;19985;-78
2020/12/14 00:41:47;;;;;;;;;;;;;;;9.43;100.00;97962.34;5094014;28;19959;-78
2020/12/14 00:44:14;;;;;;;;;;;;;;;9.42;100.00;97974.72;5093786;28;19928;-78
2020/12/14 00:46:43;;;;;;;;;;;;;;;9.52;100.00;97973.63;5094028;28;19970;-78
2020/12/14 00:49:10;;;;;;;;;;;;;;;9.50;100.00;97976.88;5093942;28;19931;-79
2020/12/14 00:51:36;;;;;;;;;;;;;;;9.48;100.00;97951.41;5094024;28;19967;-78
2020/12/14 00:54:03;;;;;;;;;;;;;;;9.42;100.00;97946.84;5094011;28;19930;-78
2020/12/14 00:56:29;;;;;;;;;;;;;;;9.44;100.00;97936.03;5093928;28;19928;-78
2020/12/14 00:58:56;;;;;;;;;;;;;;;9.42;100.00;97944.06;5093290;28;20410;-78
2020/12/14 01:01:22;;;;;;;;;;;;;;;9.32;100.00;97926.41;5093851;28;20074;-78
2020/12/14 01:03:49;;;;;;;;;;;;;;;9.38;100.00;97923.84;5093811;28;19924;-78
2020/12/14 01:06:15;;;;;;;;;;;;;;;9.40;100.00;97938.13;5093789;28;20014;-78
2020/12/14 01:08:42;;;;;;;;;;;;;;;9.37;100.00;97927.88;5093920;28;19966;-79
2020/12/14 01:11:09;;;;;;;;;;;;;;;9.35;100.00;97924.75;5093988;28;19924;-79
2020/12/14 01:13:36;;;;;;;;;;;;;;;9.34;100.00;97931.53;5093590;28;19969;-79
2020/12/14 01:16:06;;;;;;;;;;;;;;;9.35;100.00;97930.31;5093744;28;19924;-78
2020/12/14 01:18:32;;;;;;;;;;;;;;;9.32;100.00;97908.91;5075645;28;20412;-79
2020/12/14 01:20:59;;;;;;;;;;;;;;;9.39;100.00;97908.72;5075921;28;20011;-79
2020/12/14 01:23:25;;;;;;;;;;;;;;;9.37;100.00;97923.09;5093663;28;19930;-79
2020/12/14 01:25:52;;;;;;;;;;;;;;;9.38;100.00;97921.06;5093539;28;19924;-79
2020/12/14 01:28:18;;;;;;;;;;;;;;;9.36;100.00;97915.16;5093808;28;19925;-78
2020/12/14 01:30:45;;;;;;;;;;;;;;;9.19;100.00;97879.00;5093755;28;20360;-78
2020/12/14 01:33:11;;;;;;;;;;;;;;;9.19;100.00;97875.44;5093522;28;19924;-78
2020/12/14 01:35:38;;;;;;;;;;;;;;;9.08;100.00;97863.81;5093825;28;20065;-79
2020/12/14 01:38:04;;;;;;;;;;;;;;;9.08;100.00;97861.03;5093539;28;19928;-78
2020/12/14 01:40:31;;;;;;;;;;;;;;;9.12;100.00;97870.84;5093416;28;19931;-79
2020/12/14 01:42:57;;;;;;;;;;;;;;;9.19;100.00;97889.38;5093526;28;19924;-78
2020/12/14 01:45:24;;;;;;;;;;;;;;;9.12;100.00;97873.63;5096522;28;20120;-78
2020/12/14 01:47:51;;;;;;;;;;;;;;;9.15;100.00;97883.09;5097263;28;19931;-78
2020/12/14 01:50:18;;;;;;;;;;;;;;;9.14;100.00;97871.19;5079257;28;20275;-78
2020/12/14 01:52:45;;;;;;;;;;;;;;;9.18;100.00;97881.47;5079138;28;19928;-78
2020/12/14 01:55:14;;;;;;;;;;;;;;;9.25;100.00;97875.66;5096915;28;19924;-78
2020/12/14 01:57:40;;;;;;;;;;;;;;;9.23;100.00;97866.97;5096887;28;20627;-78
2020/12/14 02:00:08;;;;;;;;;;;;;;;9.28;100.00;97860.84;5097133;28;20345;-78
2020/12/14 02:02:35;;;;;;;;;;;;;;;9.29;100.00;97867.97;5096914;28;20324;-78
2020/12/14 02:05:02;;;;;;;;;;;;;;;9.19;100.00;97878.22;5078658;28;19928;-79
2020/12/14 02:07:29;;;;;;;;;;;;;;;9.22;100.00;97876.56;5096060;28;19928;-79
2020/12/14 02:09:55;;;;;;;;;;;;;;;9.31;100.00;97865.53;5077967;28;19925;-78
2020/12/14 02:12:26;;;;;;;;;;;;;;;9.21;100.00;97886.16;5078002;28;20295;-79
2020/12/14 02:14:54;;;;;;;;;;;;;;;9.18;100.00;97892.59;5078024;28;19924;-79
2020/12/14 02:17:20;;;;;;;;;;;;;;;9.21;100.00;97883.38;5095848;28;19924;-79
2020/12/14 02:19:47;;;;;;;;;;;;;;;9.15;100.00;97875.53;5095982;28;19931;-78
2020/12/14 02:22:16;;;;;;;;;;;;;;;9.26;100.00;97896.72;5077964;28;20004;-78
2020/12/14 02:24:56;;;;;;;;;;;;;;;9.28;100.00;97891.50;5095658;28;20027;-79
2020/12/14 02:27:23;;;;;;;;;;;;;;;9.31;100.00;97882.25;5095695;28;20294;-79
2020/12/14 02:29:50;;;;;;;;;;;;;;;9.35;100.00;97871.78;5077342;28;19924;-78
2020/12/14 02:32:17;;;;;;;;;;;;;;;9.41;100.00;97873.56;5095694;28;19992;-78
2020/12/14 02:34:44;;;;;;;;;;;;;;;9.41;100.00;97872.78;5077792;28;19924;-79
2020/12/14 02:37:13;;;;;;;;;;;;;;;9.27;100.00;97864.88;5095724;28;19932;-78
2020/12/14 02:39:39;;;;;;;;;;;;;;;9.34;100.00;97867.44;5077340;28;20287;-78
2020/12/14 02:42:09;;;;;;;;;;;;;;;9.28;100.00;97867.22;5095516;28;19931;-79
2020/12/14 02:44:36;;;;;;;;;;;;;;;9.29;100.00;97859.63;5095636;28;19924;-79
2020/12/14 02:47:03;;;;;;;;;;;;;;;9.31;100.00;97862.75;5095366;28;20396;-78
2020/12/14 02:49:30;;;;;;;;;;;;;;;9.32;100.00;97867.09;5095364;28;19969;-79
2020/12/14 02:51:56;;;;;;;;;;;;;;;9.32;100.00;97864.31;5095345;28;19924;-79
2020/12/14 02:54:23;;;;;;;;;;;;;;;9.26;100.00;97874.44;5095004;28;20023;-78
2020/12/14 02:56:50;;;;;;;;;;;;;;;9.30;100.00;97883.50;5095195;28;19924;-78
2020/12/14 02:59:17;;;;;;;;;;;;;;;9.37;100.00;97883.28;5076957;28;19926;-78
2020/12/14 03:01:43;;;;;;;;;;;;;;;9.37;100.00;97867.34;5095247;28;19924;-78
2020/12/14 03:04:10;;;;;;;;;;;;;;;9.26;100.00;97878.00;5077081;28;20311;-78
2020/12/14 03:06:36;;;;;;;;;;;;;;;9.20;100.00;97868.63;5094767;28;19931;-80
2020/12/14 03:09:03;;;;;;;;;;;;;;;9.24;100.00;97860.19;5094764;28;20061;-80
2020/12/14 03:11:30;;;;;;;;;;;;;;;9.20;100.00;97857.50;5076910;28;19924;-80
2020/12/14 03:13:57;;;;;;;;;;;;;;;9.25;100.00;97859.75;5094771;28;19970;-80
2020/12/14 03:16:23;;;;;;;;;;;;;;;9.28;100.00;97853.28;5094776;28;20379;-80
2020/12/14 03:18:50;;;;;;;;;;;;;;;9.29;100.00;97851.25;5094713;28;19930;-80
2020/12/14 03:21:16;;;;;;;;;;;;;;;9.25;100.00;97875.66;5094755;28;20387;-78
2020/12/14 03:23:43;;;;;;;;;;;;;;;9.27;100.00;97887.94;5094492;28;19976;-81
2020/12/14 03:26:13;;;;;;;;;;;;;;;9.34;100.00;97879.38;5094611;28;19925;-78
2020/12/14 03:28:39;;;;;;;;;;;;;;;9.36;100.00;97865.75;5076501;28;19924;-78
2020/12/14 03:31:06;;;;;;;;;;;;;;;9.27;100.00;97856.50;5076396;28;19947;-78
2020/12/14 03:33:32;;;;;;;;;;;;;;;9.18;100.00;97844.00;5094546;28;19931;-78
2020/12/14 03:35:59;;;;;;;;;;;;;;;9.18;100.00;97842.44;5076503;28;19931;-78
2020/12/14 03:38:26;;;;;;;;;;;;;;;9.14;100.00;97834.97;5094185;28;19958;-78
2020/12/14 03:40:53;;;;;;;;;;;;;;;9.11;100.00;97844.22;5094331;28;20284;-81
2020/12/14 03:43:19;;;;;;;;;;;;;;;9.12;100.00;97845.78;5094221;28;20030;-78
2020/12/14 03:45:48;;;;;;;;;;;;;;;9.05;100.00;97850.78;5076175;28;20407;-78
2020/12/14 03:48:16;;;;;;;;;;;;;;;9.13;100.00;97860.50;5094189;28;19924;-78
2020/12/14 03:50:46;;;;;;;;;;;;;;;9.19;100.00;97844.78;5094195;28;20367;-78
2020/12/14 03:53:13;;;;;;;;;;;;;;;9.13;100.00;97841.75;5076210;28;19955;-78
2020/12/14 03:55:40;;;;;;;;;;;;;;;9.14;100.00;97831.41;5075877;28;20020;-80
2020/12/14 03:58:07;;;;;;;;;;;;;;;9.15;100.00;97833.75;5093563;28;19962;-79
2020/12/14 04:00:34;;;;;;;;;;;;;;;9.14;100.00;97829.41;5075956;28;20065;-78
2020/12/14 04:03:04;;;;;;;;;;;;;;;9.16;100.00;97832.50;5093857;28;20445;-78
2020/12/14 04:05:30;;;;;;;;;;;;;;;9.12;100.00;97831.06;5093623;28;20386;-78
2020/12/14 04:07:57;;;;;;;;;;;;;;;9.05;100.00;97826.50;5075231;28;19924;-80
2020/12/14 04:10:24;;;;;;;;;;;;;;;9.07;100.00;97820.47;5059105;28;19931;-79
2020/12/14 04:12:50;;;;;;;;;;;;;;;9.06;100.00;97819.69;5093574;28;19943;-78
2020/12/14 04:15:17;;;;;;;;;;;;;;;8.88;100.00;97802.72;5059219;28;20287;-80
2020/12/14 04:17:44;;;;;;;;;;;;;;;8.95;100.00;97791.34;5093656;28;20382;-80
2020/12/14 04:20:10;;;;;;;;;;;;;;;8.97;100.00;97799.25;5093393;28;19932;-81
2020/12/14 04:22:37;;;;;;;;;;;;;;;8.98;100.00;97790.47;5075457;28;20019;-81
2020/12/14 04:25:03;;;;;;;;;;;;;;;9.00;100.00;97785.25;5075406;28;19931;-78
2020/12/14 04:27:30;;;;;;;;;;;;;;;8.94;100.00;97772.28;5093543;28;20015;-81
2020/12/14 04:29:56;;;;;;;;;;;;;;;8.90;100.00;97761.28;5093413;28;19943;-78
2020/12/14 04:32:23;;;;;;;;;;;;;;;8.93;100.00;97749.25;5075441;28;19968;-79
2020/12/14 04:34:49;;;;;;;;;;;;;;;8.87;100.00;97739.88;5093167;28;19937;-80
2020/12/14 04:37:16;;;;;;;;;;;;;;;8.82;100.00;97720.13;5093417;28;19931;-78
2020/12/14 04:39:44;;;;;;;;;;;;;;;8.68;100.00;97693.50;5075278;28;19924;-78
2020/12/14 04:42:11;;;;;;;;;;;;;;;8.73;100.00;97684.59;5075151;28;20446;-78
2020/12/14 04:44:38;;;;;;;;;;;;;;;8.69;100.00;97667.19;5075413;28;19947;-78
2020/12/14 04:47:09;;;;;;;;;;;;;;;8.61;100.00;97615.78;5093188;28;20166;-78
2020/12/14 04:49:37;;;;;;;;;;;;;;;8.63;100.00;97591.03;5093029;28;19924;-80
2020/12/14 04:52:03;;;;;;;;;;;;;;;8.62;100.00;97569.19;5058581;28;19924;-78
2020/12/14 04:54:32;;;;;;;;;;;;;;;8.61;100.00;97551.75;5075495;28;20334;-79
2020/12/14 04:57:05;;;;;;;;;;;;;;;8.61;100.00;97548.94;5093283;28;19924;-78
2020/12/14 04:59:32;;;;;;;;;;;;;;;8.44;100.00;97514.09;5092985;28;19924;-80
2020/12/14 05:02:07;;;;;;;;;;;;;;;8.58;100.00;97522.00;5075128;28;20082;-81
2020/12/14 05:04:34;;;;;;;;;;;;;;;8.48;100.00;97503.63;5092958;28;19928;-81
2020/12/14 05:07:00;;;;;;;;;;;;;;;8.51;100.00;97491.59;5092999;28;19935;-79
2020/12/14 05:09:27;;;;;;;;;;;;;;;8.66;100.00;97495.47;5092893;28;19930;-78
2020/12/14 05:11:53;;;;;;;;;;;;;;;8.55;100.00;97489.50;5093027;28;19943;-78
2020/12/14 05:14:21;;;;;;;;;;;;;;;8.70;100.00;97500.94;5093052;28;19924;-78
2020/12/14 05:16:48;;;;;;;;;;;;;;;8.78;100.00;97499.47;5074929;28;20027;-78
2020/12/14 05:19:18;;;;;;;;;;;;;;;8.78;100.00;97503.03;5093926;28;19928;-78
2020/12/14 05:21:45;;;;;;;;;;;;;;;8.82;100.00;97486.19;5097354;28;19924;-78
2020/12/14 05:24:17;;;;;;;;;;;;;;;8.76;100.00;97321.72;5096910;28;19993;-79
2020/12/14 05:26:46;;;;;;;;;;;;;;;8.70;100.00;97328.31;5078932;28;19997;-78
2020/12/14 05:29:16;;;;;;;;;;;;;;;8.72;100.00;97332.19;5078756;28;20334;-79
2020/12/14 05:32:03;;;;;;;;;;;;;;;8.65;100.00;97335.22;5078688;28;19924;-78
2020/12/14 05:34:31;;;;;;;;;;;;;;;8.66;100.00;97356.28;5096929;28;19930;-79
2020/12/14 05:37:03;;;;;;;;;;;;;;;8.56;100.00;97356.66;5078820;28;20007;-78
2020/12/14 05:39:30;;;;;;;;;;;;;;;8.67;100.00;97368.19;5096742;28;19931;-78
2020/12/14 05:42:10;;;;;;;;;;;;;;;8.71;100.00;97372.41;5077520;28;19931;-78
2020/12/14 05:44:38;;;;;;;;;;;;;;;8.64;100.00;97385.81;5096706;28;19930;-78
2020/12/14 05:47:25;;;;;;;;;;;;;;;8.74;100.00;97385.44;5096395;28;19939;-79
2020/12/14 05:49:52;;;;;;;;;;;;;;;8.72;100.00;97396.22;5096566;28;20027;-78
2020/12/14 05:52:19;;;;;;;;;;;;;;;8.56;100.00;97390.03;5078413;28;19956;-78
2020/12/14 05:54:54;;;;;;;;;;;;;;;8.47;100.00;97403.88;5096281;28;19924;-80
2020/12/14 05:57:26;;;;;;;;;;;;;;;8.44;100.00;97405.56;5096653;28;19928;-78
2020/12/14 05:59:56;;;;;;;;;;;;;;;8.44;100.00;97413.91;5096265;28;19931;-81
2020/12/14 06:02:25;;;;;;;;;;;;;;;8.41;100.00;97417.59;5078097;28;19924;-80
2020/12/14 06:04:54;;;;;;;;;;;;;;;8.42;100.00;97430.28;5096033;28;19928;-81
2020/12/14 06:07:23;;;;;;;;;;;;;;;8.53;100.00;97433.47;5096012;28;19924;-81
2020/12/14 06:10:02;;;;;;;;;;;;;;;8.60;100.00;97444.38;5096099;28;19928;-80
2020/12/14 06:12:31;;;;;;;;;;;;;;;8.63;100.00;97451.06;5096145;28;19954;-80
2020/12/14 06:15:01;;;;;;;;;;;;;;;8.60;100.00;97451.97;5096139;28;19924;-80
2020/12/14 06:17:28;;;;;;;;;;;;;;;8.54;100.00;97456.53;5095782;28;19924;-80
2020/12/14 06:20:01;;;;;;;;;;;;;;;8.54;100.00;97468.44;5095841;28;19924;-80
2020/12/14 06:22:29;;;;;;;;;;;;;;;8.50;100.00;97483.69;5096015;28;19998;-79
2020/12/14 06:24:57;;;;;;;;;;;;;;;8.49;100.00;97477.38;5077884;28;19928;-80
2020/12/14 06:27:25;;;;;;;;;;;;;;;8.53;100.00;97497.50;5095749;28;19924;-80
2020/12/14 06:29:52;;;;;;;;;;;;;;;8.41;100.00;97512.22;5095319;28;19985;-80
2020/12/14 06:32:38;;;;;;;;;;;;;;;8.50;100.00;97509.53;5095466;28;19959;-80
2020/12/14 06:35:06;;;;;;;;;;;;;;;8.54;100.00;97529.69;5095661;28;19971;-80
2020/12/14 06:37:49;;;;;;;;;;;;;;;8.55;100.00;97542.38;5095480;28;19947;-80
2020/12/14 06:40:16;;;;;;;;;;;;;;;8.57;100.00;97551.06;5095447;28;19928;-80
2020/12/14 06:42:43;;;;;;;;;;;;;;;8.63;100.00;97543.69;5095296;28;20070;-79
2020/12/14 06:45:10;;;;;;;;;;;;;;;8.52;100.00;97540.50;5060437;28;19975;-80
2020/12/14 06:47:48;;;;;;;;;;;;;;;8.56;100.00;97552.28;5060270;28;19924;-81
2020/12/14 06:50:47;;;;;;;;;;;;;;;8.61;100.00;97574.00;5077207;28;19928;-81
2020/12/14 06:53:33;;;;;;;;;;;;;;;8.57;100.00;97567.75;5055212;28;19932;-77
2020/12/14 06:55:59;;;;;;;;;;;;;;;8.60;100.00;97566.09;5087638;28;19924;-77
2020/12/14 06:58:31;;;;;;;;;;;;;;;8.56;100.00;97579.34;5092327;28;20283;-77
2020/12/14 07:00:59;;;;;;;;;;;;;;;8.47;100.00;97595.91;5071390;28;19994;-76
2020/12/14 07:03:36;;;;;;;;;;;;;;;8.48;100.00;97606.63;5089946;28;19931;-77
2020/12/14 07:06:03;;;;;;;;;;;;;;;8.40;100.00;97622.00;5090555;28;20287;-77
2020/12/14 07:08:37;;;;;;;;;;;;;;;8.41;100.00;97634.66;5089451;27;19924;-77
2020/12/14 07:11:14;;;;;;;;;;;;;;;8.40;100.00;97633.13;5122469;27;19924;-76
2020/12/14 07:13:41;;;;;;;;;;;;;;;8.35;100.00;97647.56;5089663;28;19959;-77
2020/12/14 07:16:08;;;;;;;;;;;;;;;8.33;100.00;97650.00;5090350;28;19928;-76
2020/12/14 07:18:36;;;;;;;;;;;;;;;8.28;100.00;97675.63;5089722;28;19985;-77
2020/12/14 07:21:08;;;;;;;;;;;;;;;8.36;100.00;97671.38;5089215;28;20379;-77
2020/12/14 07:23:36;;;;;;;;;;;;;;;8.26;100.00;97694.75;5089813;28;19970;-76
2020/12/14 07:26:03;;;;;;;;;;;;;;;8.30;100.00;97681.50;5090174;28;19981;-75
2020/12/14 07:28:34;;;;;;;;;;;;;;;8.31;100.00;97693.44;5088799;28;20051;-75
2020/12/14 07:31:08;;;;;;;;;;;;;;;8.15;100.00;97683.09;5088793;28;20375;-75
2020/12/14 07:33:34;;;;;;;;;;;;;;;8.20;100.00;97690.91;5123513;27;19924;-75
2020/12/14 07:36:08;;;;;;;;;;;;;;;8.24;100.00;97688.84;5092493;28;20306;-75
2020/12/14 07:38:45;;;;;;;;;;;;;;;8.30;100.00;97703.75;5093417;28;20308;-75
2020/12/14 07:41:11;;;;;;;;;;;;;;;8.27;100.00;97689.97;5093915;28;20379;-75
2020/12/14 07:43:42;;;;;;;;;;;;;;;8.28;100.00;97703.44;5127053;27;19931;-75
2020/12/14 07:46:15;;;;;;;;;;;;;;;8.24;100.00;97694.41;5127403;27;20287;-75
2020/12/14 07:48:49;;;;;;;;;;;;;;;8.24;100.00;97690.84;5094104;28;19931;-74
2020/12/14 07:51:17;;;;;;;;;;;;;;;8.24;100.00;97702.75;5094294;28;19931;-75
2020/12/14 07:53:44;;;;;;;;;;;;;;;8.24;100.00;97702.75;5094180;28;19932;-75
2020/12/14 07:56:11;;;;;;;;;;;;;;;8.26;100.00;97711.44;5094089;28;19931;-75
2020/12/14 07:58:47;;;;;;;;;;;;;;;8.28;100.00;97711.78;5093629;28;19974;-75
2020/12/14 08:01:18;;;;;;;;;;;;;;;8.17;100.00;97711.28;5075628;28;19931;-75
2020/12/14 08:03:45;;;;;;;;;;;;;;;8.26;100.00;97705.09;5075788;28;19977;-76
2020/12/14 08:06:15;;;;;;;;;;;;;;;8.27;100.00;97712.25;5093818;28;19927;-75
2020/12/14 08:08:45;;;;;;;;;;;;;;;8.30;100.00;97712.13;5093945;28;19977;-75
2020/12/14 08:11:12;;;;;;;;;;;;;;;8.28;100.00;97711.78;5092615;28;19930;-76
2020/12/14 08:13:41;;;;;;;;;;;;;;;8.22;100.00;97715.53;5093858;27;19969;-76
2020/12/14 08:16:08;;;;;;;;;;;;;;;8.35;100.00;97710.78;5093727;28;20291;-76
2020/12/14 08:18:35;;;;;;;;;;;;;;;8.42;100.00;97708.59;5093520;27;19931;-75
2020/12/14 08:21:01;;;;;;;;;;;;;;;8.32;100.00;97703.31;5093847;28;19924;-75
2020/12/14 08:23:35;;;;;;;;;;;;;;;8.26;100.00;97700.31;5093671;28;19957;-76
2020/12/14 08:26:02;;;;;;;;;;;;;;;8.34;100.00;97698.09;5093581;28;19924;-76
2020/12/14 08:28:34;;;;;;;;;;;;;;;8.25;100.00;97707.09;5092237;28;20011;-75
2020/12/14 08:31:04;;;;;;;;;;;;;;;8.24;100.00;97697.19;5093434;28;20393;-75
2020/12/14 08:33:30;;;;;;;;;;;;;;;8.24;100.00;97713.13;5093470;28;19931;-76
2020/12/14 08:35:57;;;;;;;;;;;;;;;8.20;100.00;97715.97;5093564;27;19977;-75
2020/12/14 08:38:24;;;;;;;;;;;;;;;8.26;100.00;97725.34;5093494;28;19931;-75
2020/12/14 08:40:54;;;;;;;;;;;;;;;8.36;100.00;97720.72;5093161;28;20390;-75
2020/12/14 08:43:22;;;;;;;;;;;;;;;8.41;100.00;97725.72;5093380;28;19924;-77
2020/12/14 08:46:08;;;;;;;;;;;;;;;8.46;100.00;97731.56;5093093;28;20014;-75
2020/12/14 08:48:44;;;;;;;;;;;;;;;8.48;100.00;97717.94;5093213;28;20276;-76
2020/12/14 08:51:17;;;;;;;;;;;;;;;8.53;100.00;97716.63;5075303;28;19928;-76
2020/12/14 08:53:45;;;;;;;;;;;;;;;8.51;100.00;97721.88;5093030;28;20363;-76
2020/12/14 08:56:12;;;;;;;;;;;;;;;8.36;100.00;97707.56;5092974;28;20287;-76
2020/12/14 08:58:52;;;;;;;;;;;;;;;8.39;100.00;97705.94;5092428;28;19924;-76
2020/12/14 09:01:19;;;;;;;;;;;;;;;8.51;100.00;97705.94;5093052;28;19997;-76
2020/12/14 09:04:06;;;;;;;;;;;;;;;8.44;100.00;97706.16;5093161;28;19935;-76
2020/12/14 09:06:39;;;;;;;;;;;;;;;8.61;100.00;97715.19;5082307;28;20911;-76
2020/12/14 09:09:07;;;;;;;;;;;;;;;8.63;100.00;97710.75;5071157;28;19996;-76
2020/12/14 09:11:48;;;;;;;;;;;;;;;8.70;100.00;97706.97;5088380;28;19928;-76
2020/12/14 09:14:19;;;;;;;;;;;;;;;8.65;100.00;97699.16;5087228;28;19924;-76
2020/12/14 09:16:47;;;;;;;;;;;;;;;8.66;100.00;97709.09;5087304;28;20030;-76
2020/12/14 09:19:18;;;;;;;;;;;;;;;8.64;100.00;97692.84;5087561;28;19925;-76
2020/12/14 09:21:44;;;;;;;;;;;;;;;8.63;100.00;97673.78;5087795;27;19924;-75
2020/12/14 09:24:18;;;;;;;;;;;;;;;8.54;100.00;97682.00;5088306;28;19930;-75
2020/12/14 09:26:46;;;;;;;;;;;;;;;8.60;100.00;97674.69;5088549;28;20657;-76
2020/12/14 09:29:13;;;;;;;;;;;;;;;8.48;100.00;97681.75;5087700;28;20452;-76
2020/12/14 09:31:46;;;;;;;;;;;;;;;8.36;100.00;97676.97;5086112;28;19925;-74
2020/12/14 09:34:13;;;;;;;;;;;;;;;8.31;100.00;97674.75;5120435;28;19939;-73
2020/12/14 09:36:39;;;;;;;;;;;;;;;8.42;100.00;97668.84;5087490;28;19924;-73
2020/12/14 09:39:06;;;;;;;;;;;;;;;8.38;100.00;97668.94;5086697;28;20365;-74
2020/12/14 09:41:32;;;;;;;;;;;;;;;8.50;100.00;97664.63;5088434;28;20326;-74
2020/12/14 09:43:59;;;;;;;;;;;;;;;8.44;100.00;97663.59;5086795;28;19951;-73
2020/12/14 09:46:27;;;;;;;;;;;;;;;8.49;100.00;97641.59;5087533;28;19924;-74
2020/12/14 09:48:55;;;;;;;;;;;;;;;8.61;100.00;97653.97;5086972;28;20199;-75
2020/12/14 09:51:23;;;;;;;;;;;;;;;8.64;100.00;97645.50;5087540;28;19924;-79
2020/12/14 09:53:50;;;;;;;;;;;;;;;8.70;100.00;97645.72;5088164;28;19924;-78
2020/12/14 09:56:17;;;;;;;;;;;;;;;8.69;100.00;97644.94;5106998;28;19928;-78
2020/12/14 09:58:44;;;;;;;;;;;;;;;8.68;100.00;97637.81;5089996;28;20032;-79
2020/12/14 10:01:12;;;;;;;;;;;;;;;8.54;100.00;97641.03;5092555;28;20010;-74
2020/12/14 10:03:38;;;;;;;;;;;;;;;8.46;100.00;97642.47;5092584;28;19924;-75
2020/12/14 10:06:09;;;;;;;;;;;;;;;8.35;100.00;97644.78;5095267;28;19966;-75
2020/12/14 10:08:35;;;;;;;;;;;;;;;8.41;100.00;97656.16;5096028;28;19924;-76
2020/12/14 10:11:02;;;;;;;;;;;;;;;8.25;100.00;97659.00;5093356;27;20367;-75
2020/12/14 10:13:28;;;;;;;;;;;;;;;8.18;100.00;97664.75;5082984;28;19924;-76
2020/12/14 10:15:55;;;;;;;;;;;;;;;8.19;100.00;97678.25;5095636;28;20345;-75
2020/12/14 10:18:21;;;;;;;;;;;;;;;8.15;100.00;97683.09;5078020;28;19924;-75
2020/12/14 10:20:48;;;;;;;;;;;;;;;8.25;100.00;97687.63;5077766;28;20397;-75
2020/12/14 10:23:14;;;;;;;;;;;;;;;8.22;100.00;97691.28;5095818;28;20410;-74
2020/12/14 10:25:41;;;;;;;;;;;;;;;8.16;100.00;97695.81;5095768;28;19924;-75
2020/12/14 10:28:08;;;;;;;;;;;;;;;8.26;100.00;97707.88;5095958;28;19924;-75
2020/12/14 10:30:36;;;;;;;;;;;;;;;8.38;100.00;97707.13;5095796;28;19927;-76
2020/12/14 10:33:09;;;;;;;;;;;;;;;8.54;100.00;97718.22;5095905;28;20471;-76
2020/12/14 10:35:35;;;;;;;;;;;;;;;8.55;100.00;97706.63;5095674;28;19957;-75
2020/12/14 10:38:03;;;;;;;;;;;;;;;8.74;100.00;97721.56;5095318;28;20402;-76
2020/12/14 10:40:29;;;;;;;;;;;;;;;8.72;100.00;97721.25;5077562;28;19924;-78
2020/12/14 10:42:56;;;;;;;;;;;;;;;8.77;100.00;97715.91;5095436;28;20379;-78
2020/12/14 10:45:23;;;;;;;;;;;;;;;8.68;100.00;97703.84;5095664;28;19967;-78
2020/12/14 10:47:50;;;;;;;;;;;;;;;8.71;100.00;97702.97;5095637;28;20355;-78
2020/12/14 10:50:17;;;;;;;;;;;;;;;8.68;100.00;97710.22;5095549;28;20367;-78
2020/12/14 10:52:44;;;;;;;;;;;;;;;8.89;100.00;97704.00;5095154;28;20398;-78
2020/12/14 10:55:11;;;;;;;;;;;;;;;8.98;100.00;97701.31;5095537;28;20403;-79
2020/12/14 10:57:38;;;;;;;;;;;;;;;9.09;100.00;97701.78;5095168;28;19924;-75
2020/12/14 11:00:09;;;;;;;;;;;;;;;9.15;100.00;97686.06;5095036;28;20404;-75
2020/12/14 11:02:38;;;;;;;;;;;;;;;9.08;100.00;97683.50;5095400;28;20295;-75
2020/12/14 11:05:08;;;;;;;;;;;;;;;8.90;100.00;97672.16;5095026;28;19983;-75
2020/12/14 11:07:35;;;;;;;;;;;;;;;9.03;100.00;97670.13;5094493;28;20390;-75
2020/12/14 11:10:06;;;;;;;;;;;;;;;9.09;100.00;97648.84;5094727;28;19924;-74
2020/12/14 11:12:32;;;;;;;;;;;;;;;9.01;100.00;97633.56;5093398;28;20302;-77
2020/12/14 11:14:59;;;;;;;;;;;;;;;8.84;100.00;97629.38;5098286;28;20322;-76
2020/12/14 11:21:21;;;;;;;;;;;;;;;8.71;100.00;97603.50;5083704;28;19928;-76
2020/12/14 11:24:08;;;;;;;;;;;;;;;8.85;100.00;97608.63;5093155;28;19928;-76
2020/12/14 11:26:34;;;;;;;;;;;;;;;8.80;100.00;97605.59;5093355;28;20016;-76
2020/12/14 11:29:01;;;;;;;;;;;;;;;8.81;100.00;97616.34;5094560;27;19943;-76
2020/12/14 11:31:27;;;;;;;;;;;;;;;8.80;100.00;97611.97;5087865;28;19924;-75
2020/12/14 11:33:54;;;;;;;;;;;;;;;8.85;100.00;97603.06;5104382;28;19928;-76
2020/12/14 11:36:23;;;;;;;;;;;;;;;8.92;100.00;97605.59;5104264;28;20366;-77
2020/12/14 11:38:49;;;;;;;;;;;;;;;8.99;100.00;97619.31;5104755;28;19947;-76
2020/12/14 11:41:16;;;;;;;;;;;;;;;8.92;100.00;97596.50;5093935;28;19942;-77
2020/12/14 11:43:42;;;;;;;;;;;;;;;8.91;100.00;97592.91;5094380;28;19924;-76
2020/12/14 11:46:11;;;;;;;;;;;;;;;8.84;100.00;97582.03;5094176;28;19924;-76
2020/12/14 11:48:38;;;;;;;;;;;;;;;8.75;100.00;97581.88;5094186;28;19924;-76
2020/12/14 11:51:04;;;;;;;;;;;;;;;8.67;100.00;97563.88;5091715;28;19924;-77
2020/12/14 11:53:31;;;;;;;;;;;;;;;8.67;100.00;97563.88;5078268;28;20422;-77
2020/12/14 11:55:59;;;;;;;;;;;;;;;8.62;100.00;97558.84;5111639;28;19934;-75
2020/12/14 11:58:26;;;;;;;;;;;;;;;8.67;100.00;97552.72;5112311;28;19932;-76
2020/12/14 12:00:53;;;;;;;;;;;;;;;8.69;100.00;97552.28;5112330;28;19924;-76
2020/12/14 12:03:19;;;;;;;;;;;;;;;8.80;100.00;97536.00;5092780;28;19924;-76
2020/12/14 12:05:46;;;;;;;;;;;;;;;8.85;100.00;97536.22;5106585;28;20005;-75
2020/12/14 12:08:14;;;;;;;;;;;;;;;8.79;100.00;97521.31;5095567;28;19928;-77
2020/12/14 12:10:41;;;;;;;;;;;;;;;8.82;100.00;97516.84;5094457;28;19932;-78
2020/12/14 12:13:07;;;;;;;;;;;;;;;8.81;100.00;97513.28;5105599;28;19931;-77
2020/12/14 12:15:34;;;;;;;;;;;;;;;8.77;100.00;97484.75;5114056;28;19923;-77
2020/12/14 12:18:00;;;;;;;;;;;;;;;8.66;100.00;97486.38;5114014;28;20298;-78
2020/12/14 12:20:27;;;;;;;;;;;;;;;8.74;100.00;97485.66;5086725;28;19928;-77
2020/12/14 12:22:59;;;;;;;;;;;;;;;8.83;100.00;97315.88;5093531;28;20385;-77
2020/12/14 12:25:26;;;;;;;;;;;;;;;8.79;100.00;97306.09;5091950;28;19950;-77
2020/12/14 12:27:53;;;;;;;;;;;;;;;8.71;100.00;97302.78;5092984;28;20045;-78
2020/12/14 12:30:19;;;;;;;;;;;;;;;8.70;100.00;97294.91;5092395;28;20286;-78
2020/12/14 12:32:46;;;;;;;;;;;;;;;8.72;100.00;97298.00;5093122;28;19928;-77
2020/12/14 12:35:14;;;;;;;;;;;;;;;8.90;100.00;97298.13;5095582;28;19965;-75
2020/12/14 12:37:41;;;;;;;;;;;;;;;8.89;100.00;97282.66;5100886;28;19956;-75
2020/12/14 12:40:09;;;;;;;;;;;;;;;8.87;100.00;97271.19;5092927;28;20350;-75
2020/12/14 12:42:35;;;;;;;;;;;;;;;8.83;100.00;97254.63;5094097;27;19924;-75
2020/12/14 12:45:03;;;;;;;;;;;;;;;8.80;100.00;97243.59;5093995;28;19924;-76
2020/12/14 12:47:29;;;;;;;;;;;;;;;8.77;100.00;97241.72;5126786;27;19930;-78
2020/12/14 12:49:56;;;;;;;;;;;;;;;8.75;100.00;97214.34;5094116;28;19977;-77
2020/12/14 12:52:22;;;;;;;;;;;;;;;8.77;100.00;97211.09;5094175;27;19924;-75
2020/12/14 12:54:49;;;;;;;;;;;;;;;8.59;100.00;97206.22;5090844;28;19924;-75
2020/12/14 12:57:16;;;;;;;;;;;;;;;8.57;100.00;97194.75;5091387;28;19993;-75
2020/12/14 12:59:43;;;;;;;;;;;;;;;8.53;100.00;97185.75;5125027;27;19947;-75